WEATHER DATA

TODAY
Time Temp. Dewp. Hum. Wind dir Wind speed Wind gust Bar. 1h Prec. 24h Prec.
00:01 8.4 3.5 71 0 0.8 1026.3 0.0000 0.0000
00:11 8.4 3.5 71 270 0.3 0.8 1026.2 0.0000 0.0000
00:21 8.4 3.7 72 315 0.3 0.8 1026.2 0.0000 0.0000
00:31 8.4 3.5 71 0 0.8 1026.2 0.0000 0.0000
00:41 8.4 3.5 71 0 0.8 1026.2 0.0000 0.0000
00:51 8.3 3.6 72 310 0.3 1.1 1026.2 0.0000 0.0000
01:01 8.3 3.6 72 310 0.3 1.1 1026.1 0.0000 0.0000
01:11 8.2 3.5 72 302 0.3 0.8 1026.1 0.0000 0.0000
01:21 8.2 3.5 72 306 0.3 1.1 1026.1 0.0000 0.0000
01:31 8.1 3.4 72 302 0.3 1.1 1026 0.0000 0.0000
01:41 8 3.3 72 270 0.3 1.1 1025.9 0.0000 0.0000
01:52 7.9 3.2 72 270 0.3 1.1 1025.9 0.0000 0.0000
02:01 7.8 3.3 73 270 0.3 0.8 1025.8 0.0000 0.0000
02:11 7.7 3.2 73 315 0.3 0.8 1025.6 0.0000 0.0000
02:22 7.6 3.1 73 302 0.3 1.1 1025.6 0.0000 0.0000
02:31 7.4 3.1 74 302 0.3 1.4 1025.5 0.0000 0.0000
02:41 7.4 3.3 75 303 0.3 1.1 1025.4 0.0000 0.0000
02:51 7.4 3.3 75 304 0.3 1.4 1025.3 0.0000 0.0000
03:02 7.4 3.3 75 270 0.3 0.8 1025.3 0.0000 0.0000
03:11 7.3 3.2 75 236 0.3 0.8 1025.4 0.0000 0.0000
03:21 7.2 3.3 76 270 0.3 1.1 1025.4 0.0000 0.0000
03:32 7.1 3.2 76 306 0.3 0.8 1025.3 0.0000 0.0000
03:42 7.1 3.2 76 270 0.3 0.8 1025.3 0.0000 0.0000
03:51 7 3.1 76 270 0.3 1.1 1025.3 0.0000 0.0000
04:02 6.9 3 76 309 0.3 1.1 1025.2 0.0000 0.0000
04:12 6.8 3.1 77 303 0.3 1.1 1025.1 0.0000 0.0000
04:21 6.7 3 77 302 0.3 1.1 1025 0.0000 0.0000
04:31 6.6 2.9 77 302 0.3 1.1 1025 0.0000 0.0000
04:42 6.5 2.8 77 303 0.3 0.8 1025 0.0000 0.0000
04:52 6.4 2.8 78 270 0.3 1.1 1024.9 0.0000 0.0000
05:01 6.3 2.8 78 315 0.3 0.8 1024.8 0.0000 0.0000
05:12 6.3 2.8 78 311 0.3 1.1 1024.7 0.0000 0.0000
05:22 6.1 2.7 79 315 0.3 1.1 1024.8 0.0000 0.0000
05:32 6 2.6 79 302 0.3 0.8 1024.8 0.0000 0.0000
05:42 5.9 2.5 79 315 0.3 0.8 1024.8 0.0000 0.0000
05:52 5.9 2.7 80 313 0.8 1.4 1024.9 0.0000 0.0000
06:02 5.8 2.8 81 306 0.8 1.1 1025.1 0.0000 0.0000
06:11 5.8 2.8 81 303 0.8 1.1 1025.1 0.0000 0.0000
06:22 5.7 2.9 82 270 0.3 1.1 1025.1 0.0000 0.0000
06:32 5.8 3.1 83 302 0.8 1.4 1025.2 0.0000 0.0000
06:42 6 3.3 83 306 0.8 1.7 1025.2 0.0000 0.0000
06:52 6.2 3.7 84 311 1.1 2.2 1025.2 0.0000 0.0000
07:02 6.4 3.9 84 270 0.3 1.1 1025.1 0.0000 0.0000
07:12 6.6 4.1 84 310 0.3 1.4 1025 0.0000 0.0000
07:22 6.7 4.2 84 315 0.3 1.1 1025 0.0000 0.0000
07:32 7 4.3 83 298 0.8 1.7 1025.1 0.0000 0.0000
07:42 7.2 4.5 83 270 0.3 0.8 1025.2 0.0000 0.0000
07:52 7.4 4.5 82 270 0.3 1.1 1025.3 0.0000 0.0000
08:02 7.5 4.6 82 270 0.3 1.1 1025.3 0.0000 0.0000
08:12 7.9 5 82 270 0.3 0.8 1025.3 0.0000 0.0000
08:22 8.6 5.9 83 270 0.3 1.1 1025.4 0.0000 0.0000
08:32 9.9 6.6 80 233 0.8 2.5 1025.4 0.0000 0.0000
08:42 11.1 7 76 225 0.8 1.4 1025.4 0.0000 0.0000
08:52 12.1 7.4 73 270 0.3 1.4 1025.4 0.0000 0.0000
09:02 12.8 7.5 70 205 0.3 1.7 1025.3 0.0000 0.0000
09:13 13.8 8.2 69 233 0.3 0.8 1025.5 0.0000 0.0000
09:22 14.3 8 66 200 0.8 1.7 1025.5 0.0000 0.0000
09:32 14.5 8 65 194 0.3 1.4 1025.4 0.0000 0.0000
09:42 14.8 7.8 63 221 0.8 1.7 1025.4 0.0000 0.0000
09:52 14.8 7.8 63 270 0.8 2.2 1025.4 0.0000 0.0000
10:02 15 7.5 61 251 0.8 2.5 1025.4 0.0000 0.0000
10:12 15 7.5 61 308 0.8 2.5 1025.4 0.0000 0.0000
10:23 15.3 7.6 60 251 0.8 2.2 1025.3 0.0000 0.0000
10:32 15.4 7.7 60 225 0.8 2.8 1025.2 0.0000 0.0000
10:42 15.8 8.3 61 312 1.1 3.6 1025.2 0.0000 0.0000
10:53 16.6 8.6 59 284 0.8 1.7 1025.2 0.0000 0.0000
11:03 16.7 8.1 57 217 0.8 2.2 1025.2 0.0000 0.0000
11:12 17.1 8.3 56 225 0.8 2.2 1025.2 0.0000 0.0000
11:22 17.7 8.8 56 231 0.8 2.5 1025.2 0.0000 0.0000
11:33 17.6 7.9 53 225 1.1 2.5 1025.1 0.0000 0.0000
11:42 17.7 8.3 54 225 0.8 2.8 1025.1 0.0000 0.0000
11:52 18 8 52 222 0.8 2.2 1025.2 0.0000 0.0000
12:03 17.8 8.4 54 280 0.8 2.2 1025.2 0.0000 0.0000
12:13 18.3 8.3 52 225 0.8 2.5 1025.1 0.0000 0.0000
12:22 18.6 8.3 51 281 0.8 1.7 1025.2 0.0000 0.0000
12:33 18.5 8.2 51 194 1.1 2.5 1025.3 0.0000 0.0000
12:43 18.5 8.2 51 312 0.8 1.7 1025.3 0.0000 0.0000
12:52 18.8 8.5 51 210 1.1 2.5 1025.2 0.0000 0.0000
13:02 19 8.4 50 218 0.8 2.2 1025.1 0.0000 0.0000
13:13 19.3 8.9 51 270 0.8 2.5 1025.1 0.0000 0.0000
13:23 19.9 9.2 50 246 1.1 2.5 1025.1 0.0000 0.0000
13:32 19.8 8.8 49 238 0.8 2.5 1025.1 0.0000 0.0000
13:43 19.6 9.2 51 297 1.1 3.3 1025 0.0000 0.0000
13:53 20 9.3 50 210 0.8 2.2 1025 0.0000 0.0000
14:03 20.4 9.6 50 298 1.1 2.5 1025 0.0000 0.0000
14:12 19.9 9.8 52 270 0.8 2.5 1024.9 0.0000 0.0000
14:23 20.6 10.1 51 329 1.1 2.5 1024.9 0.0000 0.0000
14:33 20.7 9.6 49 321 1.1 2.5 1024.7 0.0000 0.0000
14:43 20.6 9.5 49 270 0.8 2.5 1024.6 0.0000 0.0000
14:53 21.1 10 49 203 0.8 1.7 1024.4 0.0000 0.0000
15:03 21.5 10 48 297 1.1 2.5 1024.4 0.0000 0.0000
15:13 21.3 10.2 49 225 0.8 1.7 1024.3 0.0000 0.0000
15:23 21.8 10.3 48 199 0.8 2.2 1024.2 0.0000 0.0000
15:33 21.1 9 46 326 1.4 2.8 1024.2 0.0000 0.0000
15:43 21.6 9.8 47 228 0.8 2.5 1024.1 0.0000 0.0000
15:53 22.2 10 46 311 0.8 2.8 1024.1 0.0000 0.0000
16:03 22.2 9.7 45 205 0.8 2.2 1024 0.0000 0.0000
16:13 22.5 10 45 323 1.1 3.9 1023.9 0.0000 0.0000
16:23 22.5 10.3 46 329 0.8 2.2 1023.8 0.0000 0.0000
16:33 22.1 9.6 45 255 1.4 3.3 1023.7 0.0000 0.0000
16:41 21.9 9.4 45 328 1.1 2.8 1023.7 0.0000 0.0000
16:51 22.5 10.3 46 195 0.3 1.7 1023.8 0.0000 0.0000
17:01 23 10.1 44 331 1.4 2.5 1023.8 0.0000 0.0000
17:11 23.2 10.3 44 328 1.1 2.2 1023.8 0.0000 0.0000
17:20 23 10.4 45 330 0.8 2.5 1023.8 0.0000 0.0000
17:31 23.1 9.9 43 336 1.4 3.6 1023.8 0.0000 0.0000
17:41 22.5 9.3 43 316 1.1 2.5 1023.7 0.0000 0.0000
17:51 22.5 10 45 305 0.3 1.7 1023.6 0.0000 0.0000
18:01 22.3 9.5 44 308 0.8 2.5 1023.6 0.0000 0.0000
18:11 22.6 9.4 43 288 0.8 1.7 1023.6 0.0000 0.0000
18:21 22.8 9.2 42 298 0.8 2.2 1023.6 0.0000 0.0000
18:31 22.7 8.8 41 330 1.1 2.5 1023.5 0.0000 0.0000
18:41 22.4 7.8 39 233 0.3 1.7 1023.4 0.0000 0.0000
18:51 22.8 8.1 39 321 0.3 1.1 1023.5 0.0000 0.0000
19:01 22.2 7.6 39 306 0.3 2.5 1023.5 0.0000 0.0000
19:11 22.3 8.4 41 315 0.3 0.8 1023.5 0.0000 0.0000
19:21 22.4 8.9 42 270 0.3 1.1 1023.5 0.0000 0.0000

DAY STATISTIC

2018-06-23
TEMPERATURE
AVERAGE
14.0
HIGH
23.2
17:11
LOW
5.7
06:22
PRESSURE
AVERAGE
1025.0
HIGH
1026.3
00:01
LOW
1023.4
18:41
DEWPOINT
AVERAGE
6.5
HIGH
10.4
17:20
LOW
2.5
05:42
HUMIDITY
AVERAGE
63
HIGH
84
06:52
LOW
39
18:41
WIND SPEED
AVERAGE
0.6
HIGH
1.4
15:33
WIND GUST
AVERAGE
1.7
HIGH
3.9
16:13
WIND DIRECTION
PREVAILING
NW
47.9%
N
0.0
NE
0.0
E
0.0
SE
0.0
S
5.1
SW
19.7
W
24.8
NW
47.9
PRECIPITATION
RAIN HOUR
0.0
RAIN DAY
0.0
TEMPERATURE (°C)
LOW
5.7
HIGH
23.2
AVERAGE
14.0
PRESSURE (hpa)
LOW
1023.4
HIGH
1026.3
AVERAGE
1025.0
DEVICE